sensor_id;sensor_type;location;lat;lon;timestamp;P1;durP1;ratioP1;P2;durP2;ratioP2
14007;SDS011;61651;45.508;12.232;2023-11-21T00:02:41;30.60;;;27.50;;
14007;SDS011;61651;45.508;12.232;2023-11-21T00:05:43;31.63;;;28.50;;
14007;SDS011;61651;45.508;12.232;2023-11-21T00:08:45;30.57;;;27.30;;
14007;SDS011;61651;45.508;12.232;2023-11-21T00:11:47;29.77;;;26.17;;
14007;SDS011;61651;45.508;12.232;2023-11-21T00:14:49;31.57;;;28.20;;
14007;SDS011;61651;45.508;12.232;2023-11-21T00:17:52;31.27;;;28.17;;
14007;SDS011;61651;45.508;12.232;2023-11-21T00:20:54;32.57;;;29.17;;
14007;SDS011;61651;45.508;12.232;2023-11-21T00:23:59;31.40;;;28.03;;
14007;SDS011;61651;45.508;12.232;2023-11-21T00:27:01;31.17;;;28.00;;
14007;SDS011;61651;45.508;12.232;2023-11-21T00:30:03;34.00;;;29.43;;
14007;SDS011;61651;45.508;12.232;2023-11-21T00:33:08;31.10;;;27.83;;
14007;SDS011;61651;45.508;12.232;2023-11-21T00:36:10;32.87;;;29.47;;
14007;SDS011;61651;45.508;12.232;2023-11-21T00:39:12;32.43;;;28.93;;
14007;SDS011;61651;45.508;12.232;2023-11-21T00:42:14;34.93;;;31.23;;
14007;SDS011;61651;45.508;12.232;2023-11-21T00:45:16;32.10;;;28.50;;
14007;SDS011;61651;45.508;12.232;2023-11-21T00:48:19;32.50;;;28.93;;
14007;SDS011;61651;45.508;12.232;2023-11-21T00:51:21;33.63;;;30.10;;
14007;SDS011;61651;45.508;12.232;2023-11-21T00:54:24;33.90;;;30.13;;
14007;SDS011;61651;45.508;12.232;2023-11-21T00:57:26;32.87;;;29.53;;
14007;SDS011;61651;45.508;12.232;2023-11-21T01:00:28;33.83;;;30.43;;
14007;SDS011;61651;45.508;12.232;2023-11-21T01:03:32;37.23;;;31.50;;
14007;SDS011;61651;45.508;12.232;2023-11-21T01:06:34;35.93;;;31.50;;
14007;SDS011;61651;45.508;12.232;2023-11-21T01:09:36;35.57;;;31.97;;
14007;SDS011;61651;45.508;12.232;2023-11-21T01:12:38;34.83;;;31.23;;
14007;SDS011;61651;45.508;12.232;2023-11-21T01:15:40;34.47;;;30.87;;
14007;SDS011;61651;45.508;12.232;2023-11-21T01:18:44;35.20;;;31.40;;
14007;SDS011;61651;45.508;12.232;2023-11-21T01:21:46;36.63;;;32.53;;
14007;SDS011;61651;45.508;12.232;2023-11-21T01:24:48;36.57;;;32.67;;
14007;SDS011;61651;45.508;12.232;2023-11-21T01:27:50;36.83;;;33.03;;
14007;SDS011;61651;45.508;12.232;2023-11-21T01:30:52;36.07;;;31.87;;
14007;SDS011;61651;45.508;12.232;2023-11-21T01:33:57;41.03;;;33.17;;
14007;SDS011;61651;45.508;12.232;2023-11-21T01:36:59;37.83;;;33.83;;
14007;SDS011;61651;45.508;12.232;2023-11-21T01:40:04;39.77;;;35.57;;
14007;SDS011;61651;45.508;12.232;2023-11-21T01:43:11;40.30;;;34.77;;
14007;SDS011;61651;45.508;12.232;2023-11-21T01:46:13;38.27;;;34.37;;
14007;SDS011;61651;45.508;12.232;2023-11-21T01:49:17;48.07;;;35.03;;
14007;SDS011;61651;45.508;12.232;2023-11-21T01:52:20;37.63;;;33.80;;
14007;SDS011;61651;45.508;12.232;2023-11-21T01:55:22;39.30;;;34.60;;
14007;SDS011;61651;45.508;12.232;2023-11-21T01:58:25;38.00;;;34.00;;
14007;SDS011;61651;45.508;12.232;2023-11-21T02:01:27;39.07;;;34.67;;
14007;SDS011;61651;45.508;12.232;2023-11-21T02:04:30;35.40;;;31.60;;
14007;SDS011;61651;45.508;12.232;2023-11-21T02:07:33;36.13;;;32.47;;
14007;SDS011;61651;45.508;12.232;2023-11-21T02:10:35;38.40;;;32.50;;
14007;SDS011;61651;45.508;12.232;2023-11-21T02:13:37;38.20;;;34.00;;
14007;SDS011;61651;45.508;12.232;2023-11-21T02:16:41;35.70;;;32.00;;
14007;SDS011;61651;45.508;12.232;2023-11-21T02:19:47;35.33;;;31.60;;
14007;SDS011;61651;45.508;12.232;2023-11-21T02:22:52;34.10;;;30.47;;
14007;SDS011;61651;45.508;12.232;2023-11-21T02:25:57;32.57;;;29.17;;
14007;SDS011;61651;45.508;12.232;2023-11-21T02:29:04;32.23;;;28.83;;
14007;SDS011;61651;45.508;12.232;2023-11-21T02:32:06;31.30;;;28.00;;
14007;SDS011;61651;45.508;12.232;2023-11-21T02:35:10;31.37;;;27.97;;
14007;SDS011;61651;45.508;12.232;2023-11-21T02:38:14;31.50;;;28.13;;
14007;SDS011;61651;45.508;12.232;2023-11-21T02:41:16;31.70;;;28.23;;
14007;SDS011;61651;45.508;12.232;2023-11-21T02:44:18;31.77;;;28.47;;
14007;SDS011;61651;45.508;12.232;2023-11-21T02:47:20;30.00;;;26.80;;
14007;SDS011;61651;45.508;12.232;2023-11-21T02:50:23;33.30;;;29.70;;
14007;SDS011;61651;45.508;12.232;2023-11-21T02:53:27;33.33;;;29.93;;
14007;SDS011;61651;45.508;12.232;2023-11-21T02:56:29;31.23;;;27.87;;
14007;SDS011;61651;45.508;12.232;2023-11-21T02:59:31;30.77;;;27.70;;
14007;SDS011;61651;45.508;12.232;2023-11-21T03:02:33;30.10;;;27.10;;
14007;SDS011;61651;45.508;12.232;2023-11-21T03:05:36;28.90;;;25.90;;
14007;SDS011;61651;45.508;12.232;2023-11-21T03:08:40;29.30;;;26.40;;
14007;SDS011;61651;45.508;12.232;2023-11-21T03:11:42;28.50;;;25.40;;
14007;SDS011;61651;45.508;12.232;2023-11-21T03:14:44;27.60;;;24.83;;
14007;SDS011;61651;45.508;12.232;2023-11-21T03:17:46;29.33;;;25.57;;
14007;SDS011;61651;45.508;12.232;2023-11-21T03:20:49;27.73;;;24.27;;
14007;SDS011;61651;45.508;12.232;2023-11-21T03:23:55;26.70;;;23.93;;
14007;SDS011;61651;45.508;12.232;2023-11-21T03:26:56;26.53;;;23.87;;
14007;SDS011;61651;45.508;12.232;2023-11-21T03:29:58;25.77;;;23.03;;
14007;SDS011;61651;45.508;12.232;2023-11-21T03:33:01;26.97;;;24.17;;
14007;SDS011;61651;45.508;12.232;2023-11-21T03:36:03;25.97;;;23.27;;
14007;SDS011;61651;45.508;12.232;2023-11-21T03:39:07;26.30;;;23.63;;
14007;SDS011;61651;45.508;12.232;2023-11-21T03:42:09;26.97;;;24.20;;
14007;SDS011;61651;45.508;12.232;2023-11-21T03:45:11;26.03;;;23.37;;
14007;SDS011;61651;45.508;12.232;2023-11-21T03:48:14;28.17;;;25.17;;
14007;SDS011;61651;45.508;12.232;2023-11-21T03:51:16;25.23;;;22.83;;
14007;SDS011;61651;45.508;12.232;2023-11-21T03:54:19;25.90;;;23.10;;
14007;SDS011;61651;45.508;12.232;2023-11-21T03:57:21;25.30;;;22.70;;
14007;SDS011;61651;45.508;12.232;2023-11-21T04:00:24;25.47;;;22.97;;
14007;SDS011;61651;45.508;12.232;2023-11-21T04:03:27;26.67;;;24.03;;
14007;SDS011;61651;45.508;12.232;2023-11-21T04:06:29;26.63;;;23.83;;
14007;SDS011;61651;45.508;12.232;2023-11-21T04:09:34;26.37;;;23.67;;
14007;SDS011;61651;45.508;12.232;2023-11-21T04:12:36;26.33;;;23.50;;
14007;SDS011;61651;45.508;12.232;2023-11-21T04:15:39;26.03;;;23.43;;
14007;SDS011;61651;45.508;12.232;2023-11-21T04:18:41;25.33;;;22.70;;
14007;SDS011;61651;45.508;12.232;2023-11-21T04:21:43;23.00;;;20.60;;
14007;SDS011;61651;45.508;12.232;2023-11-21T04:24:46;24.57;;;22.07;;
14007;SDS011;61651;45.508;12.232;2023-11-21T04:27:49;23.77;;;21.33;;
14007;SDS011;61651;45.508;12.232;2023-11-21T04:30:51;24.67;;;22.17;;
14007;SDS011;61651;45.508;12.232;2023-11-21T04:33:53;23.87;;;21.47;;
14007;SDS011;61651;45.508;12.232;2023-11-21T04:36:55;24.23;;;21.73;;
14007;SDS011;61651;45.508;12.232;2023-11-21T04:39:59;24.10;;;21.60;;
14007;SDS011;61651;45.508;12.232;2023-11-21T04:43:01;23.10;;;20.70;;
14007;SDS011;61651;45.508;12.232;2023-11-21T04:46:04;23.47;;;21.10;;
14007;SDS011;61651;45.508;12.232;2023-11-21T04:49:07;23.53;;;21.10;;
14007;SDS011;61651;45.508;12.232;2023-11-21T04:52:09;23.83;;;21.47;;
14007;SDS011;61651;45.508;12.232;2023-11-21T04:55:12;23.90;;;21.40;;
14007;SDS011;61651;45.508;12.232;2023-11-21T04:58:15;22.90;;;20.70;;
14007;SDS011;61651;45.508;12.232;2023-11-21T05:01:17;24.17;;;21.20;;
14007;SDS011;61651;45.508;12.232;2023-11-21T05:04:19;22.87;;;20.67;;
14007;SDS011;61651;45.508;12.232;2023-11-21T05:07:22;23.47;;;21.17;;
14007;SDS011;61651;45.508;12.232;2023-11-21T05:10:25;23.97;;;21.47;;
14007;SDS011;61651;45.508;12.232;2023-11-21T05:13:27;24.10;;;21.50;;
14007;SDS011;61651;45.508;12.232;2023-11-21T05:16:29;25.90;;;23.40;;
14007;SDS011;61651;45.508;12.232;2023-11-21T05:19:31;24.63;;;21.80;;
14007;SDS011;61651;45.508;12.232;2023-11-21T05:22:34;24.00;;;21.40;;
14007;SDS011;61651;45.508;12.232;2023-11-21T05:25:38;23.50;;;21.10;;
14007;SDS011;61651;45.508;12.232;2023-11-21T05:28:41;23.10;;;20.67;;
14007;SDS011;61651;45.508;12.232;2023-11-21T05:31:43;23.30;;;20.93;;
14007;SDS011;61651;45.508;12.232;2023-11-21T05:34:45;22.63;;;20.37;;
14007;SDS011;61651;45.508;12.232;2023-11-21T05:37:47;24.17;;;21.57;;
14007;SDS011;61651;45.508;12.232;2023-11-21T05:40:50;23.97;;;21.57;;
14007;SDS011;61651;45.508;12.232;2023-11-21T05:43:52;23.27;;;21.00;;
14007;SDS011;61651;45.508;12.232;2023-11-21T05:46:54;24.57;;;22.07;;
14007;SDS011;61651;45.508;12.232;2023-11-21T05:49:58;24.17;;;21.67;;
14007;SDS011;61651;45.508;12.232;2023-11-21T05:53:00;23.77;;;21.47;;
14007;SDS011;61651;45.508;12.232;2023-11-21T05:56:04;24.13;;;21.53;;
14007;SDS011;61651;45.508;12.232;2023-11-21T05:59:07;24.17;;;21.63;;
14007;SDS011;61651;45.508;12.232;2023-11-21T06:02:10;23.50;;;21.10;;
14007;SDS011;61651;45.508;12.232;2023-11-21T06:05:12;24.83;;;22.43;;
14007;SDS011;61651;45.508;12.232;2023-11-21T06:08:14;22.27;;;20.07;;
14007;SDS011;61651;45.508;12.232;2023-11-21T06:11:18;26.30;;;23.33;;
14007;SDS011;61651;45.508;12.232;2023-11-21T06:14:20;23.47;;;21.23;;
14007;SDS011;61651;45.508;12.232;2023-11-21T06:17:22;24.20;;;21.60;;
14007;SDS011;61651;45.508;12.232;2023-11-21T06:20:25;24.07;;;21.57;;
14007;SDS011;61651;45.508;12.232;2023-11-21T06:23:27;29.20;;;24.53;;
14007;SDS011;61651;45.508;12.232;2023-11-21T06:26:30;25.87;;;23.13;;
14007;SDS011;61651;45.508;12.232;2023-11-21T06:29:33;26.00;;;23.40;;
14007;SDS011;61651;45.508;12.232;2023-11-21T06:32:35;25.67;;;22.90;;
14007;SDS011;61651;45.508;12.232;2023-11-21T06:35:37;26.03;;;23.30;;
14007;SDS011;61651;45.508;12.232;2023-11-21T06:38:40;26.50;;;23.50;;
14007;SDS011;61651;45.508;12.232;2023-11-21T06:41:43;25.33;;;22.60;;
14007;SDS011;61651;45.508;12.232;2023-11-21T06:44:45;27.17;;;24.37;;
14007;SDS011;61651;45.508;12.232;2023-11-21T06:47:47;26.53;;;23.73;;
14007;SDS011;61651;45.508;12.232;2023-11-21T06:50:50;27.97;;;25.07;;
14007;SDS011;61651;45.508;12.232;2023-11-21T06:53:52;27.67;;;24.70;;
14007;SDS011;61651;45.508;12.232;2023-11-21T06:56:55;28.20;;;25.17;;
14007;SDS011;61651;45.508;12.232;2023-11-21T06:59:58;26.40;;;23.70;;
14007;SDS011;61651;45.508;12.232;2023-11-21T07:03:00;27.67;;;24.80;;
14007;SDS011;61651;45.508;12.232;2023-11-21T07:06:02;27.43;;;24.63;;
14007;SDS011;61651;45.508;12.232;2023-11-21T07:09:04;27.07;;;24.33;;
14007;SDS011;61651;45.508;12.232;2023-11-21T07:12:09;25.70;;;23.13;;
14007;SDS011;61651;45.508;12.232;2023-11-21T07:15:11;30.33;;;26.60;;
14007;SDS011;61651;45.508;12.232;2023-11-21T07:18:13;29.00;;;25.97;;
14007;SDS011;61651;45.508;12.232;2023-11-21T07:21:16;30.77;;;25.83;;
14007;SDS011;61651;45.508;12.232;2023-11-21T07:24:18;33.33;;;29.97;;
14007;SDS011;61651;45.508;12.232;2023-11-21T07:27:22;32.17;;;28.40;;
14007;SDS011;61651;45.508;12.232;2023-11-21T07:30:24;31.70;;;28.53;;
14007;SDS011;61651;45.508;12.232;2023-11-21T07:33:26;30.57;;;26.63;;
14007;SDS011;61651;45.508;12.232;2023-11-21T07:36:28;28.07;;;25.23;;
14007;SDS011;61651;45.508;12.232;2023-11-21T07:39:30;27.83;;;24.97;;
14007;SDS011;61651;45.508;12.232;2023-11-21T07:42:33;27.47;;;24.67;;
14007;SDS011;61651;45.508;12.232;2023-11-21T07:45:35;27.87;;;25.07;;
14007;SDS011;61651;45.508;12.232;2023-11-21T07:48:37;26.40;;;23.70;;
14007;SDS011;61651;45.508;12.232;2023-11-21T07:51:41;26.57;;;23.90;;
14007;SDS011;61651;45.508;12.232;2023-11-21T07:54:43;26.70;;;23.93;;
14007;SDS011;61651;45.508;12.232;2023-11-21T07:57:47;25.37;;;22.87;;
14007;SDS011;61651;45.508;12.232;2023-11-21T08:00:49;25.40;;;22.80;;
14007;SDS011;61651;45.508;12.232;2023-11-21T08:03:51;26.10;;;23.30;;
14007;SDS011;61651;45.508;12.232;2023-11-21T08:06:56;24.63;;;22.13;;
14007;SDS011;61651;45.508;12.232;2023-11-21T08:09:58;24.47;;;21.93;;
14007;SDS011;61651;45.508;12.232;2023-11-21T08:13:02;24.47;;;22.00;;
14007;SDS011;61651;45.508;12.232;2023-11-21T08:16:04;25.07;;;22.43;;
14007;SDS011;61651;45.508;12.232;2023-11-21T08:19:07;24.97;;;22.37;;
14007;SDS011;61651;45.508;12.232;2023-11-21T08:22:09;26.30;;;23.07;;
14007;SDS011;61651;45.508;12.232;2023-11-21T08:25:11;26.13;;;23.43;;
14007;SDS011;61651;45.508;12.232;2023-11-21T08:28:15;25.03;;;22.60;;
14007;SDS011;61651;45.508;12.232;2023-11-21T08:31:17;24.90;;;22.33;;
14007;SDS011;61651;45.508;12.232;2023-11-21T08:34:24;23.50;;;21.17;;
14007;SDS011;61651;45.508;12.232;2023-11-21T08:37:26;25.87;;;23.33;;
14007;SDS011;61651;45.508;12.232;2023-11-21T08:40:30;24.13;;;21.53;;
14007;SDS011;61651;45.508;12.232;2023-11-21T08:43:34;22.97;;;20.80;;
14007;SDS011;61651;45.508;12.232;2023-11-21T08:46:39;24.37;;;21.97;;
14007;SDS011;61651;45.508;12.232;2023-11-21T08:49:42;24.10;;;21.60;;
14007;SDS011;61651;45.508;12.232;2023-11-21T08:52:44;23.10;;;20.20;;
14007;SDS011;61651;45.508;12.232;2023-11-21T08:55:47;22.93;;;20.50;;
14007;SDS011;61651;45.508;12.232;2023-11-21T08:58:51;22.37;;;20.10;;
14007;SDS011;61651;45.508;12.232;2023-11-21T09:01:53;22.23;;;19.93;;
14007;SDS011;61651;45.508;12.232;2023-11-21T09:04:55;25.03;;;21.57;;
14007;SDS011;61651;45.508;12.232;2023-11-21T09:07:59;23.43;;;21.13;;
14007;SDS011;61651;45.508;12.232;2023-11-21T09:11:01;24.13;;;21.60;;
14007;SDS011;61651;45.508;12.232;2023-11-21T09:14:04;23.23;;;19.93;;
14007;SDS011;61651;45.508;12.232;2023-11-21T09:17:06;24.47;;;19.03;;
14007;SDS011;61651;45.508;12.232;2023-11-21T09:20:11;21.90;;;19.03;;
14007;SDS011;61651;45.508;12.232;2023-11-21T09:23:15;20.13;;;18.13;;
14007;SDS011;61651;45.508;12.232;2023-11-21T09:26:17;19.60;;;17.53;;
14007;SDS011;61651;45.508;12.232;2023-11-21T09:29:20;19.50;;;17.60;;
14007;SDS011;61651;45.508;12.232;2023-11-21T09:32:22;19.27;;;17.40;;
14007;SDS011;61651;45.508;12.232;2023-11-21T09:35:24;18.27;;;16.40;;
14007;SDS011;61651;45.508;12.232;2023-11-21T09:38:28;18.73;;;16.80;;
14007;SDS011;61651;45.508;12.232;2023-11-21T09:41:34;18.80;;;16.90;;
14007;SDS011;61651;45.508;12.232;2023-11-21T09:44:48;19.20;;;17.17;;
14007;SDS011;61651;45.508;12.232;2023-11-21T09:47:55;18.47;;;16.67;;
14007;SDS011;61651;45.508;12.232;2023-11-21T09:50:57;17.57;;;15.70;;
14007;SDS011;61651;45.508;12.232;2023-11-21T09:54:03;16.83;;;15.03;;
14007;SDS011;61651;45.508;12.232;2023-11-21T09:57:09;19.33;;;15.63;;
14007;SDS011;61651;45.508;12.232;2023-11-21T10:00:13;18.03;;;16.33;;
14007;SDS011;61651;45.508;12.232;2023-11-21T10:03:18;20.10;;;15.50;;
14007;SDS011;61651;45.508;12.232;2023-11-21T10:06:20;18.50;;;16.67;;
14007;SDS011;61651;45.508;12.232;2023-11-21T10:09:24;20.57;;;18.47;;
14007;SDS011;61651;45.508;12.232;2023-11-21T10:12:27;21.33;;;19.27;;
14007;SDS011;61651;45.508;12.232;2023-11-21T10:15:32;21.70;;;19.37;;
14007;SDS011;61651;45.508;12.232;2023-11-21T10:18:35;20.97;;;18.87;;
14007;SDS011;61651;45.508;12.232;2023-11-21T10:21:40;21.50;;;18.37;;
14007;SDS011;61651;45.508;12.232;2023-11-21T10:24:42;19.40;;;17.27;;
14007;SDS011;61651;45.508;12.232;2023-11-21T10:27:44;19.90;;;17.87;;
14007;SDS011;61651;45.508;12.232;2023-11-21T10:30:52;19.73;;;17.53;;
14007;SDS011;61651;45.508;12.232;2023-11-21T10:33:54;18.30;;;16.53;;
14007;SDS011;61651;45.508;12.232;2023-11-21T10:36:58;19.23;;;17.23;;
14007;SDS011;61651;45.508;12.232;2023-11-21T10:40:12;17.07;;;15.33;;
14007;SDS011;61651;45.508;12.232;2023-11-21T10:43:14;14.70;;;13.27;;
14007;SDS011;61651;45.508;12.232;2023-11-21T10:46:18;12.07;;;10.80;;
14007;SDS011;61651;45.508;12.232;2023-11-21T10:49:21;9.33;;;6.57;;
14007;SDS011;61651;45.508;12.232;2023-11-21T10:52:26;4.53;;;4.13;;
14007;SDS011;61651;45.508;12.232;2023-11-21T10:55:29;3.30;;;3.00;;
14007;SDS011;61651;45.508;12.232;2023-11-21T10:58:32;4.00;;;2.57;;
14007;SDS011;61651;45.508;12.232;2023-11-21T11:01:37;3.23;;;2.17;;
14007;SDS011;61651;45.508;12.232;2023-11-21T11:04:40;2.93;;;2.73;;
14007;SDS011;61651;45.508;12.232;2023-11-21T11:07:42;3.53;;;2.20;;
14007;SDS011;61651;45.508;12.232;2023-11-21T11:10:46;2.30;;;2.10;;
14007;SDS011;61651;45.508;12.232;2023-11-21T11:13:48;2.30;;;2.10;;
14007;SDS011;61651;45.508;12.232;2023-11-21T11:16:53;2.10;;;1.90;;
14007;SDS011;61651;45.508;12.232;2023-11-21T11:19:56;2.37;;;2.13;;
14007;SDS011;61651;45.508;12.232;2023-11-21T11:22:59;1.97;;;1.77;;
14007;SDS011;61651;45.508;12.232;2023-11-21T11:26:15;3.20;;;1.70;;
14007;SDS011;61651;45.508;12.232;2023-11-21T11:29:29;2.10;;;1.80;;
14007;SDS011;61651;45.508;12.232;2023-11-21T11:32:40;2.37;;;2.17;;
14007;SDS011;61651;45.508;12.232;2023-11-21T11:35:57;2.10;;;1.73;;
14007;SDS011;61651;45.508;12.232;2023-11-21T11:39:04;2.33;;;1.97;;
14007;SDS011;61651;45.508;12.232;2023-11-21T11:42:28;2.10;;;1.90;;
14007;SDS011;61651;45.508;12.232;2023-11-21T11:45:31;1.80;;;1.70;;
14007;SDS011;61651;45.508;12.232;2023-11-21T11:48:38;1.87;;;1.77;;
14007;SDS011;61651;45.508;12.232;2023-11-21T11:51:41;1.80;;;1.70;;
14007;SDS011;61651;45.508;12.232;2023-11-21T11:54:43;3.60;;;2.20;;
14007;SDS011;61651;45.508;12.232;2023-11-21T11:57:46;2.37;;;1.90;;
14007;SDS011;61651;45.508;12.232;2023-11-21T12:00:50;3.27;;;1.90;;
14007;SDS011;61651;45.508;12.232;2023-11-21T12:07:38;2.00;;;1.80;;
14007;SDS011;61651;45.508;12.232;2023-11-21T12:10:48;1.87;;;1.67;;
14007;SDS011;61651;45.508;12.232;2023-11-21T12:13:52;1.73;;;1.50;;
14007;SDS011;61651;45.508;12.232;2023-11-21T12:16:54;1.80;;;1.70;;
14007;SDS011;61651;45.508;12.232;2023-11-21T12:20:02;1.80;;;1.70;;
14007;SDS011;61651;45.508;12.232;2023-11-21T12:23:06;2.78;;;1.83;;
14007;SDS011;61651;45.508;12.232;2023-11-21T12:26:09;1.70;;;1.60;;
14007;SDS011;61651;45.508;12.232;2023-11-21T12:29:11;1.80;;;1.60;;
14007;SDS011;61651;45.508;12.232;2023-11-21T12:32:13;1.58;;;1.48;;
14007;SDS011;61651;45.508;12.232;2023-11-21T12:35:20;2.17;;;1.60;;
14007;SDS011;61651;45.508;12.232;2023-11-21T12:38:23;1.65;;;1.55;;
14007;SDS011;61651;45.508;12.232;2023-11-21T12:41:25;1.85;;;1.70;;
14007;SDS011;61651;45.508;12.232;2023-11-21T12:44:27;1.65;;;1.42;;
14007;SDS011;61651;45.508;12.232;2023-11-21T12:47:29;1.67;;;1.58;;
14007;SDS011;61651;45.508;12.232;2023-11-21T12:50:33;1.60;;;1.50;;
14007;SDS011;61651;45.508;12.232;2023-11-21T12:53:38;1.75;;;1.60;;
14007;SDS011;61651;45.508;12.232;2023-11-21T12:56:40;1.60;;;1.50;;
14007;SDS011;61651;45.508;12.232;2023-11-21T12:59:44;1.63;;;1.52;;
14007;SDS011;61651;45.508;12.232;2023-11-21T13:02:47;1.60;;;1.50;;
14007;SDS011;61651;45.508;12.232;2023-11-21T13:05:52;1.48;;;1.38;;
14007;SDS011;61651;45.508;12.232;2023-11-21T13:08:57;3.08;;;1.73;;
14007;SDS011;61651;45.508;12.232;2023-11-21T13:12:00;1.92;;;1.83;;
14007;SDS011;61651;45.508;12.232;2023-11-21T13:15:04;2.90;;;1.80;;
14007;SDS011;61651;45.508;12.232;2023-11-21T13:18:08;2.25;;;1.95;;
14007;SDS011;61651;45.508;12.232;2023-11-21T13:21:12;2.40;;;1.83;;
14007;SDS011;61651;45.508;12.232;2023-11-21T13:24:15;1.92;;;1.83;;
14007;SDS011;61651;45.508;12.232;2023-11-21T13:27:18;2.47;;;2.15;;
14007;SDS011;61651;45.508;12.232;2023-11-21T13:30:20;3.13;;;1.80;;
14007;SDS011;61651;45.508;12.232;2023-11-21T13:33:26;1.80;;;1.70;;
14007;SDS011;61651;45.508;12.232;2023-11-21T13:36:30;2.08;;;1.88;;
14007;SDS011;61651;45.508;12.232;2023-11-21T13:39:33;2.15;;;1.95;;
14007;SDS011;61651;45.508;12.232;2023-11-21T13:42:35;1.70;;;1.60;;
14007;SDS011;61651;45.508;12.232;2023-11-21T13:45:37;3.25;;;1.95;;
14007;SDS011;61651;45.508;12.232;2023-11-21T13:48:40;2.85;;;1.67;;
14007;SDS011;61651;45.508;12.232;2023-11-21T13:51:44;3.55;;;1.85;;
14007;SDS011;61651;45.508;12.232;2023-11-21T13:54:50;1.90;;;1.80;;
14007;SDS011;61651;45.508;12.232;2023-11-21T13:57:51;2.75;;;1.60;;
14007;SDS011;61651;45.508;12.232;2023-11-21T14:00:54;2.13;;;1.90;;
14007;SDS011;61651;45.508;12.232;2023-11-21T14:03:57;2.13;;;1.83;;
14007;SDS011;61651;45.508;12.232;2023-11-21T14:07:09;1.80;;;1.70;;
14007;SDS011;61651;45.508;12.232;2023-11-21T14:10:25;2.92;;;1.77;;
14007;SDS011;61651;45.508;12.232;2023-11-21T14:13:27;2.03;;;1.92;;
14007;SDS011;61651;45.508;12.232;2023-11-21T14:16:29;2.05;;;1.83;;
14007;SDS011;61651;45.508;12.232;2023-11-21T14:19:31;2.50;;;1.52;;
14007;SDS011;61651;45.508;12.232;2023-11-21T14:22:35;2.28;;;1.70;;
14007;SDS011;61651;45.508;12.232;2023-11-21T14:25:37;2.08;;;1.63;;
14007;SDS011;61651;45.508;12.232;2023-11-21T14:28:42;2.20;;;1.80;;
14007;SDS011;61651;45.508;12.232;2023-11-21T14:31:44;6.95;;;1.70;;
14007;SDS011;61651;45.508;12.232;2023-11-21T14:34:46;1.40;;;1.30;;
14007;SDS011;61651;45.508;12.232;2023-11-21T14:37:50;2.58;;;1.95;;
14007;SDS011;61651;45.508;12.232;2023-11-21T14:40:52;1.95;;;1.45;;
14007;SDS011;61651;45.508;12.232;2023-11-21T14:43:54;3.53;;;1.60;;
14007;SDS011;61651;45.508;12.232;2023-11-21T14:46:57;4.35;;;1.38;;
14007;SDS011;61651;45.508;12.232;2023-11-21T14:50:00;4.25;;;1.50;;
14007;SDS011;61651;45.508;12.232;2023-11-21T14:53:24;6.15;;;1.38;;
14007;SDS011;61651;45.508;12.232;2023-11-21T14:56:42;2.78;;;1.35;;
14007;SDS011;61651;45.508;12.232;2023-11-21T14:59:46;2.75;;;1.40;;
14007;SDS011;61651;45.508;12.232;2023-11-21T15:02:51;4.88;;;1.40;;
14007;SDS011;61651;45.508;12.232;2023-11-21T15:05:53;4.30;;;1.38;;
14007;SDS011;61651;45.508;12.232;2023-11-21T15:08:57;5.60;;;1.40;;
14007;SDS011;61651;45.508;12.232;2023-11-21T15:12:17;1.38;;;1.27;;
14007;SDS011;61651;45.508;12.232;2023-11-21T15:15:21;5.00;;;1.42;;
14007;SDS011;61651;45.508;12.232;2023-11-21T15:18:23;2.38;;;1.60;;
14007;SDS011;61651;45.508;12.232;2023-11-21T15:21:25;1.90;;;1.48;;
14007;SDS011;61651;45.508;12.232;2023-11-21T15:24:29;2.67;;;1.40;;
14007;SDS011;61651;45.508;12.232;2023-11-21T15:27:31;4.97;;;1.30;;
14007;SDS011;61651;45.508;12.232;2023-11-21T15:30:33;7.57;;;1.73;;
14007;SDS011;61651;45.508;12.232;2023-11-21T15:33:35;4.55;;;1.30;;
14007;SDS011;61651;45.508;12.232;2023-11-21T15:36:37;2.30;;;1.42;;
14007;SDS011;61651;45.508;12.232;2023-11-21T15:39:40;1.88;;;1.30;;
14007;SDS011;61651;45.508;12.232;2023-11-21T15:42:42;3.92;;;1.23;;
14007;SDS011;61651;45.508;12.232;2023-11-21T15:45:45;3.40;;;1.52;;
14007;SDS011;61651;45.508;12.232;2023-11-21T15:48:47;6.93;;;1.50;;
14007;SDS011;61651;45.508;12.232;2023-11-21T15:51:54;6.35;;;1.50;;
14007;SDS011;61651;45.508;12.232;2023-11-21T15:55:00;3.17;;;1.40;;
14007;SDS011;61651;45.508;12.232;2023-11-21T15:58:02;3.83;;;1.40;;
14007;SDS011;61651;45.508;12.232;2023-11-21T16:01:06;7.35;;;1.92;;
14007;SDS011;61651;45.508;12.232;2023-11-21T16:04:10;6.18;;;1.67;;
14007;SDS011;61651;45.508;12.232;2023-11-21T16:07:15;3.08;;;1.90;;
14007;SDS011;61651;45.508;12.232;2023-11-21T16:10:19;4.22;;;1.88;;
14007;SDS011;61651;45.508;12.232;2023-11-21T16:13:22;6.47;;;1.92;;
14007;SDS011;61651;45.508;12.232;2023-11-21T16:16:24;4.20;;;1.63;;
14007;SDS011;61651;45.508;12.232;2023-11-21T16:19:26;4.50;;;3.00;;
14007;SDS011;61651;45.508;12.232;2023-11-21T16:22:28;6.57;;;2.17;;
14007;SDS011;61651;45.508;12.232;2023-11-21T16:25:34;3.70;;;2.40;;
14007;SDS011;61651;45.508;12.232;2023-11-21T16:28:36;5.32;;;2.28;;
14007;SDS011;61651;45.508;12.232;2023-11-21T16:31:38;12.00;;;2.58;;
14007;SDS011;61651;45.508;12.232;2023-11-21T16:34:40;9.00;;;2.77;;
14007;SDS011;61651;45.508;12.232;2023-11-21T16:37:42;6.38;;;2.20;;
14007;SDS011;61651;45.508;12.232;2023-11-21T16:40:49;3.60;;;2.20;;
14007;SDS011;61651;45.508;12.232;2023-11-21T16:43:51;5.90;;;2.30;;
14007;SDS011;61651;45.508;12.232;2023-11-21T16:46:53;7.40;;;3.90;;
14007;SDS011;61651;45.508;12.232;2023-11-21T16:49:57;2.90;;;2.13;;
14007;SDS011;61651;45.508;12.232;2023-11-21T16:52:59;7.13;;;2.72;;
14007;SDS011;61651;45.508;12.232;2023-11-21T16:56:02;8.40;;;3.30;;
14007;SDS011;61651;45.508;12.232;2023-11-21T16:59:04;6.32;;;2.95;;
14007;SDS011;61651;45.508;12.232;2023-11-21T17:02:06;8.48;;;5.80;;
14007;SDS011;61651;45.508;12.232;2023-11-21T17:05:10;14.75;;;8.13;;
14007;SDS011;61651;45.508;12.232;2023-11-21T17:08:12;9.55;;;5.40;;
14007;SDS011;61651;45.508;12.232;2023-11-21T17:11:17;11.25;;;7.72;;
14007;SDS011;61651;45.508;12.232;2023-11-21T17:14:19;6.13;;;4.00;;
14007;SDS011;61651;45.508;12.232;2023-11-21T17:17:21;5.75;;;3.53;;
14007;SDS011;61651;45.508;12.232;2023-11-21T17:20:23;7.33;;;4.50;;
14007;SDS011;61651;45.508;12.232;2023-11-21T17:23:26;6.93;;;5.83;;
14007;SDS011;61651;45.508;12.232;2023-11-21T17:26:30;9.10;;;6.07;;
14007;SDS011;61651;45.508;12.232;2023-11-21T17:29:32;5.80;;;4.33;;
14007;SDS011;61651;45.508;12.232;2023-11-21T17:32:35;7.93;;;3.53;;
14007;SDS011;61651;45.508;12.232;2023-11-21T17:35:38;5.17;;;4.10;;
14007;SDS011;61651;45.508;12.232;2023-11-21T17:38:41;7.03;;;4.03;;
14007;SDS011;61651;45.508;12.232;2023-11-21T17:41:45;5.10;;;3.20;;
14007;SDS011;61651;45.508;12.232;2023-11-21T17:44:47;5.77;;;3.57;;
14007;SDS011;61651;45.508;12.232;2023-11-21T17:47:49;5.00;;;3.50;;
14007;SDS011;61651;45.508;12.232;2023-11-21T17:50:51;5.07;;;4.17;;
14007;SDS011;61651;45.508;12.232;2023-11-21T17:53:53;4.10;;;3.37;;